sensor_id;sensor_type;location;lat;lon;timestamp;temperature;humidity
9723;DHT22;4900;49.306;8.500;2023-04-24T00:01:31;13.28;73.51
9723;DHT22;4900;49.306;8.500;2023-04-24T00:03:56;13.25;73.64
9723;DHT22;4900;49.306;8.500;2023-04-24T00:06:25;13.16;73.87
9723;DHT22;4900;49.306;8.500;2023-04-24T00:08:59;13.22;74.00
9723;DHT22;4900;49.306;8.500;2023-04-24T00:11:27;13.25;73.78
9723;DHT22;4900;49.306;8.500;2023-04-24T00:13:52;13.24;73.82
9723;DHT22;4900;49.306;8.500;2023-04-24T00:16:18;13.21;73.91
9723;DHT22;4900;49.306;8.500;2023-04-24T00:18:44;13.21;73.83
9723;DHT22;4900;49.306;8.500;2023-04-24T00:21:10;13.19;74.03
9723;DHT22;4900;49.306;8.500;2023-04-24T00:23:35;13.21;74.05
9723;DHT22;4900;49.306;8.500;2023-04-24T00:26:01;13.22;74.10
9723;DHT22;4900;49.306;8.500;2023-04-24T00:28:27;13.21;74.01
9723;DHT22;4900;49.306;8.500;2023-04-24T00:30:53;13.19;73.95
9723;DHT22;4900;49.306;8.500;2023-04-24T00:33:18;13.21;73.89
9723;DHT22;4900;49.306;8.500;2023-04-24T00:35:43;13.15;73.95
9723;DHT22;4900;49.306;8.500;2023-04-24T00:38:09;13.11;74.09
9723;DHT22;4900;49.306;8.500;2023-04-24T00:40:35;13.12;74.04
9723;DHT22;4900;49.306;8.500;2023-04-24T00:43:00;13.04;74.23
9723;DHT22;4900;49.306;8.500;2023-04-24T00:45:26;13.05;74.35
9723;DHT22;4900;49.306;8.500;2023-04-24T00:47:52;13.03;74.44
9723;DHT22;4900;49.306;8.500;2023-04-24T00:50:18;12.96;74.65
9723;DHT22;4900;49.306;8.500;2023-04-24T00:52:44;12.94;74.57
9723;DHT22;4900;49.306;8.500;2023-04-24T00:55:10;12.91;74.65
9723;DHT22;4900;49.306;8.500;2023-04-24T00:57:37;12.90;74.75
9723;DHT22;4900;49.306;8.500;2023-04-24T01:00:04;12.84;75.10
9723;DHT22;4900;49.306;8.500;2023-04-24T01:02:31;12.88;75.13
9723;DHT22;4900;49.306;8.500;2023-04-24T01:05:00;12.83;75.23
9723;DHT22;4900;49.306;8.500;2023-04-24T01:07:26;12.91;75.03
9723;DHT22;4900;49.306;8.500;2023-04-24T01:09:52;12.96;74.85
9723;DHT22;4900;49.306;8.500;2023-04-24T01:12:18;13.00;74.56
9723;DHT22;4900;49.306;8.500;2023-04-24T01:14:45;12.96;74.51
9723;DHT22;4900;49.306;8.500;2023-04-24T01:17:11;12.98;74.38
9723;DHT22;4900;49.306;8.500;2023-04-24T01:19:37;12.96;74.30
9723;DHT22;4900;49.306;8.500;2023-04-24T01:22:11;12.90;74.38
9723;DHT22;4900;49.306;8.500;2023-04-24T01:24:38;12.87;74.57
9723;DHT22;4900;49.306;8.500;2023-04-24T01:27:03;12.83;74.68
9723;DHT22;4900;49.306;8.500;2023-04-24T01:29:28;12.83;74.69
9723;DHT22;4900;49.306;8.500;2023-04-24T01:31:55;12.77;74.78
9723;DHT22;4900;49.306;8.500;2023-04-24T01:34:20;12.81;74.84
9723;DHT22;4900;49.306;8.500;2023-04-24T01:36:46;12.81;74.85
9723;DHT22;4900;49.306;8.500;2023-04-24T01:39:13;12.81;74.80
9723;DHT22;4900;49.306;8.500;2023-04-24T01:41:38;12.81;74.91
9723;DHT22;4900;49.306;8.500;2023-04-24T01:44:04;12.77;74.93
9723;DHT22;4900;49.306;8.500;2023-04-24T01:46:29;12.79;75.00
9723;DHT22;4900;49.306;8.500;2023-04-24T01:48:58;12.77;75.08
9723;DHT22;4900;49.306;8.500;2023-04-24T01:51:24;12.77;75.10
9723;DHT22;4900;49.306;8.500;2023-04-24T01:53:53;12.77;75.02
9723;DHT22;4900;49.306;8.500;2023-04-24T01:56:20;12.74;75.02
9723;DHT22;4900;49.306;8.500;2023-04-24T01:58:46;12.73;75.15
9723;DHT22;4900;49.306;8.500;2023-04-24T02:01:18;12.69;75.14
9723;DHT22;4900;49.306;8.500;2023-04-24T02:03:44;12.69;75.16
9723;DHT22;4900;49.306;8.500;2023-04-24T02:06:11;12.69;75.15
9723;DHT22;4900;49.306;8.500;2023-04-24T02:08:37;12.70;75.27
9723;DHT22;4900;49.306;8.500;2023-04-24T02:11:03;12.66;75.32
9723;DHT22;4900;49.306;8.500;2023-04-24T02:13:28;12.69;75.41
9723;DHT22;4900;49.306;8.500;2023-04-24T02:15:54;12.70;75.20
9723;DHT22;4900;49.306;8.500;2023-04-24T02:18:19;12.73;75.10
9723;DHT22;4900;49.306;8.500;2023-04-24T02:20:45;12.73;75.23
9723;DHT22;4900;49.306;8.500;2023-04-24T02:23:11;12.73;75.18
9723;DHT22;4900;49.306;8.500;2023-04-24T02:25:36;12.71;75.13
9723;DHT22;4900;49.306;8.500;2023-04-24T02:28:02;12.70;75.31
9723;DHT22;4900;49.306;8.500;2023-04-24T02:30:28;12.70;75.39
9723;DHT22;4900;49.306;8.500;2023-04-24T02:32:54;12.70;75.44
9723;DHT22;4900;49.306;8.500;2023-04-24T02:35:20;12.67;75.53
9723;DHT22;4900;49.306;8.500;2023-04-24T02:37:45;12.70;75.48
9723;DHT22;4900;49.306;8.500;2023-04-24T02:40:11;12.70;75.40
9723;DHT22;4900;49.306;8.500;2023-04-24T02:42:36;12.69;75.52
9723;DHT22;4900;49.306;8.500;2023-04-24T02:45:02;12.71;75.50
9723;DHT22;4900;49.306;8.500;2023-04-24T02:47:28;12.74;75.43
9723;DHT22;4900;49.306;8.500;2023-04-24T02:49:53;12.77;75.41
9723;DHT22;4900;49.306;8.500;2023-04-24T02:52:18;12.76;75.47
9723;DHT22;4900;49.306;8.500;2023-04-24T02:54:44;12.80;75.54
9723;DHT22;4900;49.306;8.500;2023-04-24T02:57:09;12.81;75.78
9723;DHT22;4900;49.306;8.500;2023-04-24T02:59:35;12.81;76.08
9723;DHT22;4900;49.306;8.500;2023-04-24T03:02:00;12.81;76.38
9723;DHT22;4900;49.306;8.500;2023-04-24T03:04:26;12.69;77.53
9723;DHT22;4900;49.306;8.500;2023-04-24T03:06:52;12.59;78.03
9723;DHT22;4900;49.306;8.500;2023-04-24T03:09:22;12.67;77.90
9723;DHT22;4900;49.306;8.500;2023-04-24T03:11:48;12.66;78.01
9723;DHT22;4900;49.306;8.500;2023-04-24T03:14:15;12.71;78.16
9723;DHT22;4900;49.306;8.500;2023-04-24T03:16:40;12.70;78.24
9723;DHT22;4900;49.306;8.500;2023-04-24T03:19:06;12.71;78.02
9723;DHT22;4900;49.306;8.500;2023-04-24T03:21:31;12.73;77.58
9723;DHT22;4900;49.306;8.500;2023-04-24T03:23:57;12.73;77.37
9723;DHT22;4900;49.306;8.500;2023-04-24T03:26:22;12.73;77.20
9723;DHT22;4900;49.306;8.500;2023-04-24T03:28:48;12.73;76.98
9723;DHT22;4900;49.306;8.500;2023-04-24T03:31:13;12.74;76.63
9723;DHT22;4900;49.306;8.500;2023-04-24T03:33:40;12.70;76.46
9723;DHT22;4900;49.306;8.500;2023-04-24T03:36:06;12.67;76.23
9723;DHT22;4900;49.306;8.500;2023-04-24T03:38:32;12.59;76.17
9723;DHT22;4900;49.306;8.500;2023-04-24T03:40:57;12.57;76.05
9723;DHT22;4900;49.306;8.500;2023-04-24T03:43:22;12.52;75.84
9723;DHT22;4900;49.306;8.500;2023-04-24T03:45:48;12.50;75.79
9723;DHT22;4900;49.306;8.500;2023-04-24T03:48:14;12.49;75.53
9723;DHT22;4900;49.306;8.500;2023-04-24T03:50:39;12.46;75.33
9723;DHT22;4900;49.306;8.500;2023-04-24T03:53:05;12.45;75.20
9723;DHT22;4900;49.306;8.500;2023-04-24T03:55:30;12.38;75.10
9723;DHT22;4900;49.306;8.500;2023-04-24T03:57:55;12.35;74.93
9723;DHT22;4900;49.306;8.500;2023-04-24T04:00:21;12.25;74.96
9723;DHT22;4900;49.306;8.500;2023-04-24T04:02:46;12.18;75.03
9723;DHT22;4900;49.306;8.500;2023-04-24T04:05:12;12.01;75.16
9723;DHT22;4900;49.306;8.500;2023-04-24T04:07:37;11.93;75.33
9723;DHT22;4900;49.306;8.500;2023-04-24T04:10:03;11.91;75.36
9723;DHT22;4900;49.306;8.500;2023-04-24T04:12:29;11.86;75.26
9723;DHT22;4900;49.306;8.500;2023-04-24T04:14:54;11.79;75.30
9723;DHT22;4900;49.306;8.500;2023-04-24T04:17:20;11.73;75.36
9723;DHT22;4900;49.306;8.500;2023-04-24T04:19:45;11.66;75.38
9723;DHT22;4900;49.306;8.500;2023-04-24T04:22:11;11.63;75.54
9723;DHT22;4900;49.306;8.500;2023-04-24T04:24:37;11.60;75.60
9723;DHT22;4900;49.306;8.500;2023-04-24T04:27:04;11.59;75.43
9723;DHT22;4900;49.306;8.500;2023-04-24T04:29:30;11.53;75.38
9723;DHT22;4900;49.306;8.500;2023-04-24T04:31:56;11.49;75.41
9723;DHT22;4900;49.306;8.500;2023-04-24T04:34:22;11.43;75.44
9723;DHT22;4900;49.306;8.500;2023-04-24T04:36:48;11.48;75.40
9723;DHT22;4900;49.306;8.500;2023-04-24T04:39:13;11.42;75.36
9723;DHT22;4900;49.306;8.500;2023-04-24T04:41:40;11.43;75.42
9723;DHT22;4900;49.306;8.500;2023-04-24T04:44:06;11.39;75.64
9723;DHT22;4900;49.306;8.500;2023-04-24T04:46:34;11.43;75.65
9723;DHT22;4900;49.306;8.500;2023-04-24T04:49:00;11.41;75.76
9723;DHT22;4900;49.306;8.500;2023-04-24T04:51:27;11.43;75.81
9723;DHT22;4900;49.306;8.500;2023-04-24T04:53:52;11.48;75.63
9723;DHT22;4900;49.306;8.500;2023-04-24T04:56:18;11.49;75.69
9723;DHT22;4900;49.306;8.500;2023-04-24T04:58:43;11.53;75.60
9723;DHT22;4900;49.306;8.500;2023-04-24T05:01:09;11.53;75.63
9723;DHT22;4900;49.306;8.500;2023-04-24T05:03:34;11.56;75.55
9723;DHT22;4900;49.306;8.500;2023-04-24T05:06:01;11.58;75.46
9723;DHT22;4900;49.306;8.500;2023-04-24T05:08:27;11.62;75.40
9723;DHT22;4900;49.306;8.500;2023-04-24T05:10:53;11.69;75.13
9723;DHT22;4900;49.306;8.500;2023-04-24T05:13:18;11.71;74.94
9723;DHT22;4900;49.306;8.500;2023-04-24T05:15:44;11.79;74.73
9723;DHT22;4900;49.306;8.500;2023-04-24T05:18:09;11.84;74.53
9723;DHT22;4900;49.306;8.500;2023-04-24T05:20:35;11.88;74.34
9723;DHT22;4900;49.306;8.500;2023-04-24T05:23:00;11.91;74.11
9723;DHT22;4900;49.306;8.500;2023-04-24T05:25:26;11.95;73.71
9723;DHT22;4900;49.306;8.500;2023-04-24T05:27:51;12.04;73.35
9723;DHT22;4900;49.306;8.500;2023-04-24T05:30:19;12.14;73.11
9723;DHT22;4900;49.306;8.500;2023-04-24T05:32:45;12.25;72.83
9723;DHT22;4900;49.306;8.500;2023-04-24T05:35:11;12.24;72.62
9723;DHT22;4900;49.306;8.500;2023-04-24T05:37:36;12.39;72.18
9723;DHT22;4900;49.306;8.500;2023-04-24T05:40:03;12.50;71.73
9723;DHT22;4900;49.306;8.500;2023-04-24T05:42:30;12.55;71.43
9723;DHT22;4900;49.306;8.500;2023-04-24T05:44:56;12.57;71.47
9723;DHT22;4900;49.306;8.500;2023-04-24T05:47:21;12.71;70.99
9723;DHT22;4900;49.306;8.500;2023-04-24T05:49:47;12.76;70.68
9723;DHT22;4900;49.306;8.500;2023-04-24T05:52:13;12.85;70.31
9723;DHT22;4900;49.306;8.500;2023-04-24T05:54:39;13.01;69.90
9723;DHT22;4900;49.306;8.500;2023-04-24T05:57:04;13.03;69.84
9723;DHT22;4900;49.306;8.500;2023-04-24T05:59:33;13.01;69.56
9723;DHT22;4900;49.306;8.500;2023-04-24T06:01:59;13.33;69.19
9723;DHT22;4900;49.306;8.500;2023-04-24T06:04:24;13.40;68.71
9723;DHT22;4900;49.306;8.500;2023-04-24T06:06:50;13.49;68.35
9723;DHT22;4900;49.306;8.500;2023-04-24T06:09:21;13.63;68.04
9723;DHT22;4900;49.306;8.500;2023-04-24T06:11:47;13.56;67.74
9723;DHT22;4900;49.306;8.500;2023-04-24T06:14:12;13.43;67.81
9723;DHT22;4900;49.306;8.500;2023-04-24T06:16:37;13.39;67.91
9723;DHT22;4900;49.306;8.500;2023-04-24T06:19:04;13.50;67.83
9723;DHT22;4900;49.306;8.500;2023-04-24T06:21:29;13.50;67.83
9723;DHT22;4900;49.306;8.500;2023-04-24T06:23:55;13.56;67.86
9723;DHT22;4900;49.306;8.500;2023-04-24T06:26:21;13.64;67.63
9723;DHT22;4900;49.306;8.500;2023-04-24T06:28:47;13.60;67.78
9723;DHT22;4900;49.306;8.500;2023-04-24T06:31:13;13.73;67.83
9723;DHT22;4900;49.306;8.500;2023-04-24T06:33:38;13.84;67.60
9723;DHT22;4900;49.306;8.500;2023-04-24T06:36:04;13.93;67.36
9723;DHT22;4900;49.306;8.500;2023-04-24T06:38:29;13.87;67.38
9723;DHT22;4900;49.306;8.500;2023-04-24T06:40:55;13.93;67.19
9723;DHT22;4900;49.306;8.500;2023-04-24T06:43:20;13.91;67.23
9723;DHT22;4900;49.306;8.500;2023-04-24T06:45:46;13.97;67.25
9723;DHT22;4900;49.306;8.500;2023-04-24T06:48:12;14.05;66.85
9723;DHT22;4900;49.306;8.500;2023-04-24T06:50:37;14.18;66.49
9723;DHT22;4900;49.306;8.500;2023-04-24T06:53:03;14.08;66.67
9723;DHT22;4900;49.306;8.500;2023-04-24T06:55:28;14.02;66.75
9723;DHT22;4900;49.306;8.500;2023-04-24T06:57:54;13.88;66.83
9723;DHT22;4900;49.306;8.500;2023-04-24T07:00:19;13.70;67.13
9723;DHT22;4900;49.306;8.500;2023-04-24T07:02:45;13.71;67.17
9723;DHT22;4900;49.306;8.500;2023-04-24T07:05:10;13.44;67.93
9723;DHT22;4900;49.306;8.500;2023-04-24T07:07:36;13.54;67.97
9723;DHT22;4900;49.306;8.500;2023-04-24T07:10:04;13.39;68.75
9723;DHT22;4900;49.306;8.500;2023-04-24T07:12:29;13.35;69.39
9723;DHT22;4900;49.306;8.500;2023-04-24T07:14:55;13.08;69.52
9723;DHT22;4900;49.306;8.500;2023-04-24T07:17:20;13.19;69.18
9723;DHT22;4900;49.306;8.500;2023-04-24T07:19:46;13.14;68.00
9723;DHT22;4900;49.306;8.500;2023-04-24T07:22:11;13.22;67.84
9723;DHT22;4900;49.306;8.500;2023-04-24T07:24:43;13.22;67.25
9723;DHT22;4900;49.306;8.500;2023-04-24T07:27:08;13.21;66.81
9723;DHT22;4900;49.306;8.500;2023-04-24T07:29:34;13.32;66.26
9723;DHT22;4900;49.306;8.500;2023-04-24T07:32:00;13.43;65.88
9723;DHT22;4900;49.306;8.500;2023-04-24T07:34:26;13.57;65.50
9723;DHT22;4900;49.306;8.500;2023-04-24T07:36:51;13.63;64.79
9723;DHT22;4900;49.306;8.500;2023-04-24T07:39:18;13.53;64.31
9723;DHT22;4900;49.306;8.500;2023-04-24T07:41:43;13.71;63.85
9723;DHT22;4900;49.306;8.500;2023-04-24T07:44:09;13.76;63.41
9723;DHT22;4900;49.306;8.500;2023-04-24T07:46:35;13.74;63.21
9723;DHT22;4900;49.306;8.500;2023-04-24T07:49:00;14.25;62.00
9723;DHT22;4900;49.306;8.500;2023-04-24T07:51:26;15.05;60.08
9723;DHT22;4900;49.306;8.500;2023-04-24T07:53:56;15.89;58.30
9723;DHT22;4900;49.306;8.500;2023-04-24T07:56:21;16.46;56.24
9723;DHT22;4900;49.306;8.500;2023-04-24T07:58:47;17.04;54.78
9723;DHT22;4900;49.306;8.500;2023-04-24T08:01:12;17.60;53.76
9723;DHT22;4900;49.306;8.500;2023-04-24T08:03:38;17.98;52.45
9723;DHT22;4900;49.306;8.500;2023-04-24T08:06:03;18.50;51.46
9723;DHT22;4900;49.306;8.500;2023-04-24T08:08:29;18.64;51.29
9723;DHT22;4900;49.306;8.500;2023-04-24T08:10:54;18.93;50.53
9723;DHT22;4900;49.306;8.500;2023-04-24T08:13:20;18.96;50.44
9723;DHT22;4900;49.306;8.500;2023-04-24T08:15:46;19.39;49.45
9723;DHT22;4900;49.306;8.500;2023-04-24T08:18:11;19.75;48.38
9723;DHT22;4900;49.306;8.500;2023-04-24T08:20:39;20.03;47.70
9723;DHT22;4900;49.306;8.500;2023-04-24T08:23:04;19.85;47.11
9723;DHT22;4900;49.306;8.500;2023-04-24T08:25:30;19.33;46.63
9723;DHT22;4900;49.306;8.500;2023-04-24T08:27:56;18.88;46.85
9723;DHT22;4900;49.306;8.500;2023-04-24T08:30:21;18.91;46.94
9723;DHT22;4900;49.306;8.500;2023-04-24T08:32:47;18.88;46.83
9723;DHT22;4900;49.306;8.500;2023-04-24T08:35:12;19.10;46.26
9723;DHT22;4900;49.306;8.500;2023-04-24T08:37:38;19.36;46.43
9723;DHT22;4900;49.306;8.500;2023-04-24T08:40:08;19.48;46.60
9723;DHT22;4900;49.306;8.500;2023-04-24T08:42:37;19.24;47.27
9723;DHT22;4900;49.306;8.500;2023-04-24T08:45:02;19.24;47.82
9723;DHT22;4900;49.306;8.500;2023-04-24T08:47:29;19.16;47.14
9723;DHT22;4900;49.306;8.500;2023-04-24T08:49:55;19.20;47.50
9723;DHT22;4900;49.306;8.500;2023-04-24T08:52:21;18.95;47.19
9723;DHT22;4900;49.306;8.500;2023-04-24T08:54:47;19.50;46.36
9723;DHT22;4900;49.306;8.500;2023-04-24T08:57:14;20.34;45.02
9723;DHT22;4900;49.306;8.500;2023-04-24T08:59:41;20.85;43.90
9723;DHT22;4900;49.306;8.500;2023-04-24T09:02:10;20.45;43.55
9723;DHT22;4900;49.306;8.500;2023-04-24T09:04:37;19.61;43.82
9723;DHT22;4900;49.306;8.500;2023-04-24T09:07:03;18.68;45.23
9723;DHT22;4900;49.306;8.500;2023-04-24T09:09:30;18.63;45.89
9723;DHT22;4900;49.306;8.500;2023-04-24T09:11:58;19.00;44.74
9723;DHT22;4900;49.306;8.500;2023-04-24T09:14:24;18.98;44.70
9723;DHT22;4900;49.306;8.500;2023-04-24T09:16:50;18.95;45.12
9723;DHT22;4900;49.306;8.500;2023-04-24T09:19:15;19.14;45.27
9723;DHT22;4900;49.306;8.500;2023-04-24T09:21:45;19.03;45.60
9723;DHT22;4900;49.306;8.500;2023-04-24T09:24:16;18.89;45.84
9723;DHT22;4900;49.306;8.500;2023-04-24T09:26:46;18.50;46.48
9723;DHT22;4900;49.306;8.500;2023-04-24T09:29:18;18.08;47.25
9723;DHT22;4900;49.306;8.500;2023-04-24T09:31:44;18.16;47.43
9723;DHT22;4900;49.306;8.500;2023-04-24T09:34:10;18.24;47.47
9723;DHT22;4900;49.306;8.500;2023-04-24T09:36:42;18.44;47.35
9723;DHT22;4900;49.306;8.500;2023-04-24T09:39:10;18.96;46.66
9723;DHT22;4900;49.306;8.500;2023-04-24T09:41:57;19.75;45.25
9723;DHT22;4900;49.306;8.500;2023-04-24T09:44:25;19.92;44.49
9723;DHT22;4900;49.306;8.500;2023-04-24T09:46:59;19.82;44.49
9723;DHT22;4900;49.306;8.500;2023-04-24T09:49:30;20.21;43.94
9723;DHT22;4900;49.306;8.500;2023-04-24T09:52:09;20.52;43.23
9723;DHT22;4900;49.306;8.500;2023-04-24T09:54:36;20.79;42.68
9723;DHT22;4900;49.306;8.500;2023-04-24T09:57:02;20.58;42.60
9723;DHT22;4900;49.306;8.500;2023-04-24T09:59:27;20.26;42.74
9723;DHT22;4900;49.306;8.500;2023-04-24T10:01:53;20.03;42.70
9723;DHT22;4900;49.306;8.500;2023-04-24T10:04:26;19.37;43.10
9723;DHT22;4900;49.306;8.500;2023-04-24T10:06:54;19.22;43.64
9723;DHT22;4900;49.306;8.500;2023-04-24T10:09:21;18.96;43.96
9723;DHT22;4900;49.306;8.500;2023-04-24T10:11:49;18.46;44.74
9723;DHT22;4900;49.306;8.500;2023-04-24T10:14:17;18.19;45.63
9723;DHT22;4900;49.306;8.500;2023-04-24T10:16:43;17.92;46.61
9723;DHT22;4900;49.306;8.500;2023-04-24T10:19:10;17.78;47.75
9723;DHT22;4900;49.306;8.500;2023-04-24T10:21:36;17.68;48.64
9723;DHT22;4900;49.306;8.500;2023-04-24T10:24:10;17.55;48.78
9723;DHT22;4900;49.306;8.500;2023-04-24T10:26:36;17.75;48.64
9723;DHT22;4900;49.306;8.500;2023-04-24T10:29:04;17.68;48.62
9723;DHT22;4900;49.306;8.500;2023-04-24T10:31:36;17.67;48.65
9723;DHT22;4900;49.306;8.500;2023-04-24T10:34:02;17.77;48.55
9723;DHT22;4900;49.306;8.500;2023-04-24T10:36:30;17.41;49.43
9723;DHT22;4900;49.306;8.500;2023-04-24T10:39:00;17.54;49.76
9723;DHT22;4900;49.306;8.500;2023-04-24T10:41:26;17.96;49.39
9723;DHT22;4900;49.306;8.500;2023-04-24T10:44:08;18.31;48.81
9723;DHT22;4900;49.306;8.500;2023-04-24T10:46:35;18.69;47.65
9723;DHT22;4900;49.306;8.500;2023-04-24T10:49:10;19.00;47.00
9723;DHT22;4900;49.306;8.500;2023-04-24T10:51:52;19.40;46.46
9723;DHT22;4900;49.306;8.500;2023-04-24T10:56:47;20.02;44.76
9723;DHT22;4900;49.306;8.500;2023-04-24T10:59:24;20.95;43.41
9723;DHT22;4900;49.306;8.500;2023-04-24T11:01:54;21.65;41.85
9723;DHT22;4900;49.306;8.500;2023-04-24T11:04:30;22.17;40.67
9723;DHT22;4900;49.306;8.500;2023-04-24T11:06:57;22.28;40.51
9723;DHT22;4900;49.306;8.500;2023-04-24T11:09:22;22.34;40.23
9723;DHT22;4900;49.306;8.500;2023-04-24T11:12:02;22.90;39.29
9723;DHT22;4900;49.306;8.500;2023-04-24T11:14:29;23.24;38.64
9723;DHT22;4900;49.306;8.500;2023-04-24T11:16:54;23.17;38.85
9723;DHT22;4900;49.306;8.500;2023-04-24T11:19:27;23.86;38.51
9723;DHT22;4900;49.306;8.500;2023-04-24T11:37:37;23.35;37.03
9723;DHT22;4900;49.306;8.500;2023-04-24T11:40:04;23.43;36.71
9723;DHT22;4900;49.306;8.500;2023-04-24T11:42:35;23.48;36.75
9723;DHT22;4900;49.306;8.500;2023-04-24T11:45:00;23.51;37.18
9723;DHT22;4900;49.306;8.500;2023-04-24T11:47:30;23.30;37.10
9723;DHT22;4900;49.306;8.500;2023-04-24T11:49:58;22.82;37.78
9723;DHT22;4900;49.306;8.500;2023-04-24T11:52:23;22.67;37.90
9723;DHT22;4900;49.306;8.500;2023-04-24T11:54:49;22.44;38.26
9723;DHT22;4900;49.306;8.500;2023-04-24T11:57:15;22.17;38.21
9723;DHT22;4900;49.306;8.500;2023-04-24T11:59:41;21.72;38.69
9723;DHT22;4900;49.306;8.500;2023-04-24T12:02:06;21.55;38.93
9723;DHT22;4900;49.306;8.500;2023-04-24T12:04:40;21.55;38.96
9723;DHT22;4900;49.306;8.500;2023-04-24T12:07:06;21.17;39.27
9723;DHT22;4900;49.306;8.500;2023-04-24T12:09:47;21.21;39.40
9723;DHT22;4900;49.306;8.500;2023-04-24T12:12:15;21.16;39.56
9723;DHT22;4900;49.306;8.500;2023-04-24T12:14:50;21.09;39.85
9723;DHT22;4900;49.306;8.500;2023-04-24T12:17:32;21.02;39.70
9723;DHT22;4900;49.306;8.500;2023-04-24T12:20:07;21.09;39.69
9723;DHT22;4900;49.306;8.500;2023-04-24T12:25:13;20.74;39.87
9723;DHT22;4900;49.306;8.500;2023-04-24T12:27:38;20.62;39.91
9723;DHT22;4900;49.306;8.500;2023-04-24T12:30:05;20.45;40.21
9723;DHT22;4900;49.306;8.500;2023-04-24T12:32:31;20.41;40.20
9723;DHT22;4900;49.306;8.500;2023-04-24T12:34:57;20.36;40.11
9723;DHT22;4900;49.306;8.500;2023-04-24T12:37:24;20.40;40.24
9723;DHT22;4900;49.306;8.500;2023-04-24T12:40:05;20.38;40.17
9723;DHT22;4900;49.306;8.500;2023-04-24T12:42:34;20.49;40.21
9723;DHT22;4900;49.306;8.500;2023-04-24T12:45:05;20.47;40.26
9723;DHT22;4900;49.306;8.500;2023-04-24T12:47:32;20.52;40.28
9723;DHT22;4900;49.306;8.500;2023-04-24T12:49:58;20.47;40.38
9723;DHT22;4900;49.306;8.500;2023-04-24T12:52:24;20.26;40.50
9723;DHT22;4900;49.306;8.500;2023-04-24T12:54:53;20.40;40.68
9723;DHT22;4900;49.306;8.500;2023-04-24T12:57:19;20.89;40.19
9723;DHT22;4900;49.306;8.500;2023-04-24T12:59:44;21.33;40.00
9723;DHT22;4900;49.306;8.500;2023-04-24T13:02:11;21.33;39.57
9723;DHT22;4900;49.306;8.500;2023-04-24T13:04:36;21.27;39.13
9723;DHT22;4900;49.306;8.500;2023-04-24T13:07:02;21.44;38.91
9723;DHT22;4900;49.306;8.500;2023-04-24T13:09:28;21.44;38.60
9723;DHT22;4900;49.306;8.500;2023-04-24T13:11:54;21.65;38.47
9723;DHT22;4900;49.306;8.500;2023-04-24T13:14:20;21.66;38.51
9723;DHT22;4900;49.306;8.500;2023-04-24T13:16:46;21.62;38.40
9723;DHT22;4900;49.306;8.500;2023-04-24T13:19:12;21.41;38.41
9723;DHT22;4900;49.306;8.500;2023-04-24T13:21:37;21.29;38.58
9723;DHT22;4900;49.306;8.500;2023-04-24T13:24:03;21.41;38.85
9723;DHT22;4900;49.306;8.500;2023-04-24T13:26:30;22.34;38.47
9723;DHT22;4900;49.306;8.500;2023-04-24T13:28:55;22.68;37.38
9723;DHT22;4900;49.306;8.500;2023-04-24T13:31:21;22.71;36.66
9723;DHT22;4900;49.306;8.500;2023-04-24T13:33:46;22.73;36.64
9723;DHT22;4900;49.306;8.500;2023-04-24T13:36:12;22.79;36.67
9723;DHT22;4900;49.306;8.500;2023-04-24T13:38:37;22.93;36.84
9723;DHT22;4900;49.306;8.500;2023-04-24T13:41:03;22.71;36.96
9723;DHT22;4900;49.306;8.500;2023-04-24T13:43:28;22.34;37.00
9723;DHT22;4900;49.306;8.500;2023-04-24T13:45:53;22.38;37.22
9723;DHT22;4900;49.306;8.500;2023-04-24T13:48:19;22.08;37.57
9723;DHT22;4900;49.306;8.500;2023-04-24T13:50:44;21.76;37.76
9723;DHT22;4900;49.306;8.500;2023-04-24T13:53:14;21.47;38.03
9723;DHT22;4900;49.306;8.500;2023-04-24T13:55:39;21.26;38.45
9723;DHT22;4900;49.306;8.500;2023-04-24T13:58:05;21.33;38.41
9723;DHT22;4900;49.306;8.500;2023-04-24T14:00:30;21.16;38.82
9723;DHT22;4900;49.306;8.500;2023-04-24T14:02:56;21.11;39.11
9723;DHT22;4900;49.306;8.500;2023-04-24T14:05:21;20.85;39.41
9723;DHT22;4900;49.306;8.500;2023-04-24T14:07:47;20.33;40.08
9723;DHT22;4900;49.306;8.500;2023-04-24T14:10:12;20.31;40.44
9723;DHT22;4900;49.306;8.500;2023-04-24T14:12:38;20.95;40.07
9723;DHT22;4900;49.306;8.500;2023-04-24T14:15:04;21.04;39.07
9723;DHT22;4900;49.306;8.500;2023-04-24T14:17:30;20.96;38.91
9723;DHT22;4900;49.306;8.500;2023-04-24T14:19:56;21.17;38.81
9723;DHT22;4900;49.306;8.500;2023-04-24T14:22:22;21.14;38.83
9723;DHT22;4900;49.306;8.500;2023-04-24T14:24:47;20.96;38.81
9723;DHT22;4900;49.306;8.500;2023-04-24T14:27:13;20.82;38.93
9723;DHT22;4900;49.306;8.500;2023-04-24T14:29:39;20.75;39.18
9723;DHT22;4900;49.306;8.500;2023-04-24T14:32:04;20.76;39.25
9723;DHT22;4900;49.306;8.500;2023-04-24T14:34:30;20.44;39.52
9723;DHT22;4900;49.306;8.500;2023-04-24T14:36:56;20.26;39.87
9723;DHT22;4900;49.306;8.500;2023-04-24T14:39:21;19.86;40.69
9723;DHT22;4900;49.306;8.500;2023-04-24T14:41:47;19.24;41.37
9723;DHT22;4900;49.306;8.500;2023-04-24T14:44:12;18.98;42.66
9723;DHT22;4900;49.306;8.500;2023-04-24T14:46:38;18.69;44.28
9723;DHT22;4900;49.306;8.500;2023-04-24T14:49:03;18.65;45.13
9723;DHT22;4900;49.306;8.500;2023-04-24T14:51:29;18.41;46.22
9723;DHT22;4900;49.306;8.500;2023-04-24T14:53:56;18.23;49.33
9723;DHT22;4900;49.306;8.500;2023-04-24T14:56:21;19.14;50.67
9723;DHT22;4900;49.306;8.500;2023-04-24T14:58:47;19.57;49.29
9723;DHT22;4900;49.306;8.500;2023-04-24T15:01:12;19.76;48.13
9723;DHT22;4900;49.306;8.500;2023-04-24T15:03:38;19.71;47.92
9723;DHT22;4900;49.306;8.500;2023-04-24T15:06:03;19.78;47.33
9723;DHT22;4900;49.306;8.500;2023-04-24T15:08:29;19.71;47.27
9723;DHT22;4900;49.306;8.500;2023-04-24T15:10:54;19.71;47.19
9723;DHT22;4900;49.306;8.500;2023-04-24T15:13:20;19.47;47.20
9723;DHT22;4900;49.306;8.500;2023-04-24T15:15:48;19.09;47.23
9723;DHT22;4900;49.306;8.500;2023-04-24T15:18:14;18.95;46.58
9723;DHT22;4900;49.306;8.500;2023-04-24T15:20:39;18.98;46.44
9723;DHT22;4900;49.306;8.500;2023-04-24T15:23:08;18.75;46.45
9723;DHT22;4900;49.306;8.500;2023-04-24T15:25:34;18.43;46.32
9723;DHT22;4900;49.306;8.500;2023-04-24T15:27:59;18.17;46.49
9723;DHT22;4900;49.306;8.500;2023-04-24T15:30:26;18.05;46.58
9723;DHT22;4900;49.306;8.500;2023-04-24T15:32:51;17.75;46.96
9723;DHT22;4900;49.306;8.500;2023-04-24T15:35:17;17.60;47.11
9723;DHT22;4900;49.306;8.500;2023-04-24T15:37:43;17.47;47.20
9723;DHT22;4900;49.306;8.500;2023-04-24T15:40:09;17.37;47.71
9723;DHT22;4900;49.306;8.500;2023-04-24T15:42:36;17.33;47.71
9723;DHT22;4900;49.306;8.500;2023-04-24T15:45:02;17.27;48.06
9723;DHT22;4900;49.306;8.500;2023-04-24T15:47:28;17.13;48.65
9723;DHT22;4900;49.306;8.500;2023-04-24T15:49:54;17.01;49.31
9723;DHT22;4900;49.306;8.500;2023-04-24T15:52:20;16.67;51.82
9723;DHT22;4900;49.306;8.500;2023-04-24T15:54:46;16.53;53.09
9723;DHT22;4900;49.306;8.500;2023-04-24T15:57:11;16.39;53.78
9723;DHT22;4900;49.306;8.500;2023-04-24T15:59:37;16.41;54.25
9723;DHT22;4900;49.306;8.500;2023-04-24T16:02:03;16.58;54.06
9723;DHT22;4900;49.306;8.500;2023-04-24T16:04:29;16.89;53.78
9723;DHT22;4900;49.306;8.500;2023-04-24T16:06:55;17.06;53.63
9723;DHT22;4900;49.306;8.500;2023-04-24T16:09:22;17.11;53.58
9723;DHT22;4900;49.306;8.500;2023-04-24T16:11:47;17.24;53.29
9723;DHT22;4900;49.306;8.500;2023-04-24T16:14:13;17.47;52.79
9723;DHT22;4900;49.306;8.500;2023-04-24T16:16:38;17.61;52.48
9723;DHT22;4900;49.306;8.500;2023-04-24T16:19:03;17.71;52.41